createdAt,value
2022-12-09T00:01:16.912Z,7.00
2022-12-09T00:03:44.861Z,6.63
2022-12-09T00:06:20.922Z,6.80
2022-12-09T00:08:49.079Z,7.30
2022-12-09T00:11:17.160Z,6.47
2022-12-09T00:13:44.919Z,6.60
2022-12-09T00:16:16.088Z,7.00
2022-12-09T00:18:43.949Z,6.80
2022-12-09T00:21:22.652Z,7.00
2022-12-09T00:23:51.267Z,7.47
2022-12-09T00:26:20.700Z,6.60
2022-12-09T00:28:49.439Z,6.57
2022-12-09T00:31:19.579Z,6.90
2022-12-09T00:33:47.402Z,7.13
2022-12-09T00:36:17.041Z,6.63
2022-12-09T00:38:45.071Z,6.43
2022-12-09T00:41:13.177Z,6.50
2022-12-09T00:43:41.393Z,6.43
2022-12-09T00:46:09.215Z,7.23
2022-12-09T00:48:39.694Z,6.50
2022-12-09T00:51:08.453Z,6.50
2022-12-09T00:53:36.319Z,5.97
2022-12-09T00:56:04.242Z,5.93
2022-12-09T00:58:32.082Z,6.13
2022-12-09T01:00:59.843Z,6.50
2022-12-09T01:03:27.851Z,6.37
2022-12-09T01:05:56.092Z,6.30
2022-12-09T01:08:23.970Z,7.17
2022-12-09T01:10:51.797Z,6.00
2022-12-09T01:13:19.565Z,6.70
2022-12-09T01:15:47.599Z,6.10
2022-12-09T01:18:15.499Z,6.60
2022-12-09T01:20:43.338Z,6.00
2022-12-09T01:23:12.168Z,6.60
2022-12-09T01:25:40.589Z,6.33
2022-12-09T01:28:08.477Z,6.80
2022-12-09T01:30:36.536Z,7.43
2022-12-09T01:33:04.551Z,7.00
2022-12-09T01:35:32.464Z,5.43
2022-12-09T01:38:00.485Z,6.73
2022-12-09T01:40:28.570Z,6.50
2022-12-09T01:42:56.542Z,6.97
2022-12-09T01:45:24.350Z,6.60
2022-12-09T01:48:01.570Z,6.57
2022-12-09T01:50:34.385Z,7.10
2022-12-09T01:53:02.172Z,7.10
2022-12-09T01:55:30.030Z,6.67
2022-12-09T01:57:57.740Z,6.77
2022-12-09T02:00:25.734Z,6.70
2022-12-09T02:02:53.686Z,7.43
2022-12-09T02:05:22.021Z,6.97
2022-12-09T02:07:50.000Z,7.30
2022-12-09T02:10:18.125Z,7.23
2022-12-09T02:12:49.110Z,6.90
2022-12-09T02:15:23.662Z,7.43
2022-12-09T02:18:05.284Z,7.93
2022-12-09T02:20:57.515Z,7.40
2022-12-09T02:23:40.078Z,7.07
2022-12-09T02:26:17.990Z,7.23
2022-12-09T02:29:07.037Z,7.87
2022-12-09T02:31:58.031Z,7.07
2022-12-09T02:34:28.211Z,6.63
2022-12-09T02:37:12.595Z,8.00
2022-12-09T02:40:01.533Z,8.37
2022-12-09T02:42:32.958Z,6.93
2022-12-09T02:45:00.728Z,8.27
2022-12-09T02:47:29.826Z,8.07
2022-12-09T02:50:00.907Z,7.77
2022-12-09T02:52:29.724Z,7.93
2022-12-09T02:54:57.875Z,8.30
2022-12-09T02:57:27.488Z,8.43
2022-12-09T02:59:55.395Z,8.33
2022-12-09T03:02:35.347Z,8.33
2022-12-09T03:05:36.918Z,7.70
2022-12-09T03:08:49.337Z,8.93
2022-12-09T03:11:18.744Z,8.43
2022-12-09T03:13:49.229Z,8.70
2022-12-09T03:16:31.859Z,8.30
2022-12-09T03:19:09.656Z,7.83
2022-12-09T03:21:40.097Z,8.77
2022-12-09T03:24:09.783Z,9.17
2022-12-09T03:26:38.916Z,8.57
2022-12-09T03:29:08.676Z,8.67
2022-12-09T03:31:36.479Z,9.17
2022-12-09T03:34:06.340Z,9.07
2022-12-09T03:36:42.838Z,8.87
2022-12-09T03:39:13.466Z,9.87
2022-12-09T03:41:48.213Z,10.03
2022-12-09T03:44:20.152Z,9.43
2022-12-09T03:46:48.323Z,10.27
2022-12-09T03:49:16.151Z,9.60
2022-12-09T03:51:50.349Z,9.37
2022-12-09T03:54:34.014Z,8.73
2022-12-09T03:57:02.169Z,9.00
2022-12-09T03:59:30.795Z,9.83
2022-12-09T04:01:58.975Z,8.90
2022-12-09T04:04:28.615Z,9.10
2022-12-09T04:06:56.477Z,9.37
2022-12-09T04:09:24.382Z,9.13
2022-12-09T04:11:52.474Z,9.70
2022-12-09T04:14:20.494Z,9.20
2022-12-09T04:16:48.450Z,10.03
2022-12-09T04:19:16.250Z,9.23
2022-12-09T04:21:44.063Z,9.97
2022-12-09T04:24:11.883Z,9.83
2022-12-09T04:26:39.715Z,9.90
2022-12-09T04:29:07.659Z,9.90
2022-12-09T04:31:35.872Z,9.90
2022-12-09T04:34:09.816Z,10.63
2022-12-09T04:36:38.115Z,10.40
2022-12-09T04:39:06.144Z,10.40
2022-12-09T04:41:34.402Z,10.03
2022-12-09T04:44:02.557Z,10.53
2022-12-09T04:46:30.482Z,11.57
2022-12-09T04:48:58.336Z,10.30
2022-12-09T04:51:26.172Z,10.60
2022-12-09T04:53:53.980Z,9.90
2022-12-09T04:56:22.414Z,10.40
2022-12-09T04:58:50.716Z,11.20
2022-12-09T05:01:24.909Z,11.87
2022-12-09T05:03:54.874Z,11.43
2022-12-09T05:06:23.245Z,11.13
2022-12-09T05:08:52.034Z,11.30
2022-12-09T05:11:20.806Z,11.93
2022-12-09T05:13:49.149Z,10.67
2022-12-09T05:16:18.329Z,12.40
2022-12-09T05:18:46.665Z,12.07
2022-12-09T05:21:17.305Z,11.17
2022-12-09T05:23:45.238Z,11.97
2022-12-09T05:26:15.899Z,11.20
2022-12-09T05:28:48.744Z,10.77
2022-12-09T05:31:18.391Z,11.33
2022-12-09T05:33:47.311Z,11.47
2022-12-09T05:36:20.391Z,12.33
2022-12-09T05:38:49.110Z,11.47
2022-12-09T05:41:17.823Z,12.30
2022-12-09T05:43:45.920Z,11.43
2022-12-09T05:46:14.746Z,12.57
2022-12-09T05:48:42.985Z,12.20
2022-12-09T05:51:18.172Z,11.77
2022-12-09T05:53:46.392Z,12.10
2022-12-09T05:56:18.852Z,12.00
2022-12-09T05:58:46.920Z,11.43
2022-12-09T06:01:15.024Z,11.50
2022-12-09T06:03:43.077Z,11.77
2022-12-09T06:06:16.124Z,12.53
2022-12-09T06:08:45.169Z,11.23
2022-12-09T06:11:15.472Z,12.13
2022-12-09T06:13:43.573Z,11.70
2022-12-09T06:16:12.084Z,11.67
2022-12-09T06:18:40.261Z,12.27
2022-12-09T06:21:09.383Z,12.90
2022-12-09T06:23:37.938Z,13.03
2022-12-09T06:26:06.361Z,11.57
2022-12-09T06:28:34.856Z,11.10
2022-12-09T06:31:02.841Z,11.70
2022-12-09T06:33:54.229Z,12.23
2022-12-09T06:36:19.063Z,11.30
2022-12-09T06:38:47.258Z,11.93
2022-12-09T06:41:15.768Z,12.30
2022-12-09T06:43:44.176Z,11.60
2022-12-09T06:46:16.567Z,12.73
2022-12-09T06:48:44.838Z,11.10
2022-12-09T06:51:13.619Z,12.73
2022-12-09T06:53:41.686Z,12.83
2022-12-09T06:56:12.549Z,12.10
2022-12-09T06:58:42.292Z,12.77
2022-12-09T07:01:18.712Z,12.27
2022-12-09T07:03:48.441Z,12.70
2022-12-09T07:06:31.991Z,10.87
2022-12-09T07:09:04.754Z,11.40
2022-12-09T07:11:32.932Z,10.93
2022-12-09T07:14:01.328Z,11.87
2022-12-09T07:16:29.733Z,11.50
2022-12-09T07:18:58.431Z,12.13
2022-12-09T07:21:26.448Z,12.03
2022-12-09T07:23:59.433Z,13.87
2022-12-09T07:26:27.395Z,12.63
2022-12-09T07:28:55.592Z,12.30
2022-12-09T07:31:26.407Z,12.07
2022-12-09T07:33:55.413Z,11.90
2022-12-09T07:36:24.408Z,11.77
2022-12-09T07:38:59.360Z,12.50
2022-12-09T07:41:32.441Z,12.13
2022-12-09T07:44:00.554Z,12.57
2022-12-09T07:46:28.871Z,11.77
2022-12-09T07:49:01.949Z,12.67
2022-12-09T07:51:30.848Z,12.03
2022-12-09T07:53:58.763Z,11.93
2022-12-09T07:56:26.876Z,13.07
2022-12-09T07:58:55.510Z,13.13
2022-12-09T08:01:25.345Z,13.50
2022-12-09T08:03:53.806Z,13.03
2022-12-09T08:06:23.954Z,12.47
2022-12-09T08:08:52.947Z,13.17
2022-12-09T08:11:23.493Z,12.30
2022-12-09T08:13:51.860Z,12.23
2022-12-09T08:16:22.796Z,12.73
2022-12-09T08:18:51.522Z,11.33
2022-12-09T08:21:22.663Z,12.10
2022-12-09T08:23:51.475Z,11.80
2022-12-09T08:26:20.650Z,13.07
2022-12-09T08:28:48.881Z,12.63
2022-12-09T08:31:18.938Z,12.20
2022-12-09T08:33:47.417Z,13.50
2022-12-09T08:36:20.361Z,13.30
2022-12-09T08:38:48.723Z,12.13
2022-12-09T08:41:22.355Z,12.50
2022-12-09T08:43:50.624Z,12.83
2022-12-09T08:46:18.803Z,12.17
2022-12-09T08:48:51.996Z,12.67
2022-12-09T08:51:20.322Z,11.47
2022-12-09T08:53:48.244Z,13.07
2022-12-09T08:56:16.343Z,31.33
2022-12-09T08:58:44.664Z,12.87
2022-12-09T09:01:20.373Z,12.47
2022-12-09T09:03:49.054Z,12.30
2022-12-09T09:06:20.438Z,11.53
2022-12-09T09:08:49.197Z,11.97
2022-12-09T09:11:19.752Z,11.37
2022-12-09T09:13:49.670Z,11.87
2022-12-09T09:16:19.679Z,11.13
2022-12-09T09:18:48.381Z,11.53
2022-12-09T09:21:17.653Z,11.87
2022-12-09T09:23:46.817Z,11.37
2022-12-09T09:26:16.578Z,11.33
2022-12-09T09:28:49.597Z,11.17
2022-12-09T09:31:20.513Z,12.00
2022-12-09T09:33:49.066Z,11.80
2022-12-09T09:36:25.775Z,12.67
2022-12-09T09:38:55.904Z,12.20
2022-12-09T09:41:50.258Z,11.60
2022-12-09T09:44:26.550Z,11.93
2022-12-09T09:46:56.568Z,11.63
2022-12-09T09:49:32.075Z,13.27
2022-12-09T09:52:00.659Z,11.80
2022-12-09T09:54:29.260Z,11.47
2022-12-09T09:57:02.161Z,11.30
2022-12-09T10:00:08.535Z,11.50
2022-12-09T10:03:10.746Z,11.70
2022-12-09T10:05:45.790Z,11.60
2022-12-09T10:08:51.029Z,11.23
2022-12-09T10:11:26.314Z,12.43
2022-12-09T10:14:11.042Z,12.10
2022-12-09T10:17:04.352Z,11.60
2022-12-09T10:19:41.099Z,11.63
2022-12-09T10:22:17.989Z,11.23
2022-12-09T10:24:54.668Z,11.07
2022-12-09T10:27:39.105Z,12.27
2022-12-09T10:30:17.991Z,11.57
2022-12-09T10:32:46.710Z,11.17
2022-12-09T10:35:34.593Z,12.27
2022-12-09T10:38:13.454Z,12.30
2022-12-09T10:40:48.187Z,12.97
2022-12-09T10:43:45.278Z,16.10
2022-12-09T10:46:28.274Z,13.00
2022-12-09T10:48:59.848Z,11.73
2022-12-09T10:51:30.238Z,12.80
2022-12-09T10:54:02.704Z,12.37
2022-12-09T10:56:38.675Z,11.83
2022-12-09T10:59:19.727Z,12.37
2022-12-09T11:01:59.809Z,12.43
2022-12-09T11:04:38.438Z,12.33
2022-12-09T11:07:17.347Z,12.80
2022-12-09T11:09:46.952Z,12.00
2022-12-09T11:12:19.509Z,12.73
2022-12-09T11:14:53.515Z,13.57
2022-12-09T11:17:38.513Z,13.37
2022-12-09T11:20:07.275Z,12.60
2022-12-09T11:22:40.930Z,12.30
2022-12-09T11:25:12.796Z,11.97
2022-12-09T11:27:44.119Z,11.73
2022-12-09T11:30:18.396Z,12.37
2022-12-09T11:33:08.072Z,12.17
2022-12-09T11:35:52.730Z,11.67
2022-12-09T11:38:31.725Z,11.83
2022-12-09T11:41:40.798Z,12.40
2022-12-09T11:44:26.980Z,12.20
2022-12-09T11:47:11.923Z,11.83
2022-12-09T11:49:52.306Z,12.10
2022-12-09T11:52:27.346Z,10.97
2022-12-09T11:55:30.751Z,11.70
2022-12-09T11:58:02.011Z,11.57
2022-12-09T12:00:42.021Z,12.20
2022-12-09T12:03:13.700Z,12.40
2022-12-09T12:05:46.365Z,11.73
2022-12-09T12:08:31.656Z,12.37
2022-12-09T12:11:14.917Z,11.70
2022-12-09T12:13:45.231Z,11.63
2022-12-09T12:16:34.838Z,12.67
2022-12-09T12:19:37.690Z,19.40
2022-12-09T12:22:19.718Z,13.73
2022-12-09T12:25:12.377Z,11.90
2022-12-09T12:27:57.552Z,12.80
2022-12-09T12:30:27.476Z,12.70
2022-12-09T12:36:18.198Z,12.97
2022-12-09T12:39:19.093Z,11.93
2022-12-09T12:42:06.406Z,11.77
2022-12-09T12:44:55.656Z,11.50
2022-12-09T12:47:25.383Z,12.60
2022-12-09T12:50:34.880Z,12.20
2022-12-09T12:53:24.357Z,13.67
2022-12-09T12:56:09.550Z,13.17
2022-12-09T12:58:59.585Z,13.43
2022-12-09T13:01:56.873Z,12.40
2022-12-09T13:04:41.768Z,13.47
2022-12-09T13:07:35.170Z,12.53
2022-12-09T13:10:23.157Z,13.30
2022-12-09T13:12:55.653Z,12.87
2022-12-09T13:15:41.798Z,12.27
2022-12-09T13:18:19.068Z,13.03
2022-12-09T13:20:49.603Z,12.60
2022-12-09T13:23:52.897Z,14.20
2022-12-09T13:26:36.844Z,12.50
2022-12-09T13:29:17.499Z,12.90
2022-12-09T13:31:50.207Z,13.20
2022-12-09T13:34:39.475Z,13.20
2022-12-09T13:37:47.075Z,12.63
2022-12-09T13:40:33.019Z,12.83
2022-12-09T13:43:11.946Z,12.47
2022-12-09T13:45:45.841Z,12.90
2022-12-09T13:48:17.272Z,13.60
2022-12-09T13:50:46.200Z,12.40
2022-12-09T13:53:20.490Z,13.57
2022-12-09T13:55:57.560Z,13.27
2022-12-09T13:58:43.047Z,12.20
2022-12-09T14:01:13.715Z,12.93
2022-12-09T14:04:01.655Z,13.30
2022-12-09T14:07:10.034Z,13.30
2022-12-09T14:09:50.429Z,13.77
2022-12-09T14:12:27.189Z,13.27
2022-12-09T14:14:59.486Z,13.00
2022-12-09T14:17:28.121Z,12.23
2022-12-09T14:20:01.685Z,12.07
2022-12-09T14:22:32.334Z,12.37
2022-12-09T14:25:00.473Z,13.77
2022-12-09T14:27:32.757Z,13.17
2022-12-09T14:30:06.346Z,13.87
2022-12-09T14:32:38.473Z,13.00
2022-12-09T14:35:12.564Z,12.97
2022-12-09T14:37:57.984Z,13.53
2022-12-09T14:40:44.366Z,12.70
2022-12-09T14:43:27.586Z,12.67
2022-12-09T14:46:03.208Z,12.37
2022-12-09T14:48:39.694Z,12.47
2022-12-09T14:51:37.518Z,13.43
2022-12-09T14:54:14.387Z,12.97
2022-12-09T14:56:44.161Z,12.77
2022-12-09T14:59:21.522Z,13.27
2022-12-09T15:01:59.342Z,11.93
2022-12-09T15:04:41.827Z,13.10
2022-12-09T15:07:15.838Z,12.70
2022-12-09T15:09:58.312Z,12.37
2022-12-09T15:12:42.837Z,11.90
2022-12-09T15:15:16.444Z,12.90
2022-12-09T15:17:48.661Z,13.73
2022-12-09T15:20:24.279Z,13.03
2022-12-09T15:23:02.072Z,12.67
2022-12-09T15:25:30.077Z,12.33
2022-12-09T15:28:14.962Z,12.00
2022-12-09T15:30:45.107Z,11.73
2022-12-09T15:33:20.684Z,11.80
2022-12-09T15:36:02.320Z,11.83
2022-12-09T15:38:40.506Z,12.67
2022-12-09T15:41:28.519Z,12.20
2022-12-09T15:43:57.857Z,11.93
2022-12-09T15:46:25.645Z,11.43
2022-12-09T15:48:58.854Z,11.83
2022-12-09T15:51:27.907Z,12.17
2022-12-09T15:54:02.644Z,12.50
2022-12-09T15:56:58.737Z,12.73
2022-12-09T15:59:35.671Z,12.33
2022-12-09T16:02:06.355Z,12.27
2022-12-09T16:04:37.163Z,12.40
2022-12-09T16:07:09.395Z,12.90
2022-12-09T16:09:37.363Z,12.57
2022-12-09T16:12:05.512Z,11.90
2022-12-09T16:14:51.286Z,12.80
2022-12-09T16:17:29.383Z,12.87
2022-12-09T16:19:57.175Z,12.97
2022-12-09T16:22:26.468Z,13.53
2022-12-09T16:25:18.006Z,13.80
2022-12-09T16:27:49.594Z,12.97
2022-12-09T16:30:22.178Z,12.63
2022-12-09T16:33:03.297Z,12.53
2022-12-09T16:35:36.761Z,13.63
2022-12-09T16:38:12.416Z,13.43
2022-12-09T16:40:46.537Z,13.50
2022-12-09T16:43:17.558Z,13.03
2022-12-09T16:45:46.785Z,12.67
2022-12-09T16:48:14.852Z,12.43
2022-12-09T16:51:07.116Z,12.73
2022-12-09T16:53:49.407Z,12.37
2022-12-09T16:56:28.529Z,13.13
2022-12-09T16:58:56.513Z,12.40
2022-12-09T17:01:27.062Z,13.57
2022-12-09T17:04:05.526Z,13.43
2022-12-09T17:06:33.468Z,13.03
2022-12-09T17:09:01.415Z,12.83
2022-12-09T17:11:29.335Z,12.30
2022-12-09T17:13:57.107Z,13.13
2022-12-09T17:16:29.772Z,13.77
2022-12-09T17:18:57.805Z,13.43
2022-12-09T17:21:25.799Z,13.23
2022-12-09T17:23:53.865Z,12.73
2022-12-09T17:26:22.288Z,12.63
2022-12-09T17:28:50.464Z,13.57
2022-12-09T17:31:22.409Z,13.20
2022-12-09T17:33:50.461Z,12.17
2022-12-09T17:36:19.036Z,13.67
2022-12-09T17:38:46.999Z,13.63
2022-12-09T17:41:17.205Z,14.37
2022-12-09T17:43:45.210Z,13.07
2022-12-09T17:46:13.578Z,13.23
2022-12-09T17:48:41.766Z,12.33
2022-12-09T17:51:11.466Z,12.80
2022-12-09T17:53:40.704Z,11.83
2022-12-09T17:56:09.977Z,12.10
2022-12-09T17:58:38.363Z,12.93
2022-12-09T18:01:06.735Z,13.83
2022-12-09T18:03:54.927Z,14.77
2022-12-09T18:06:23.008Z,14.70
2022-12-09T18:08:51.020Z,14.47
2022-12-09T18:11:23.617Z,13.40
2022-12-09T18:13:51.952Z,13.50
2022-12-09T18:16:20.291Z,13.27
2022-12-09T18:18:48.349Z,13.37
2022-12-09T18:21:16.808Z,13.00
2022-12-09T18:23:44.997Z,12.07
2022-12-09T18:26:14.322Z,11.97
2022-12-09T18:28:42.145Z,11.17
2022-12-09T18:31:18.090Z,12.20
2022-12-09T18:33:46.023Z,12.17
2022-12-09T18:36:16.293Z,10.90
2022-12-09T18:38:44.456Z,11.13
2022-12-09T18:41:17.125Z,12.20
2022-12-09T18:43:45.996Z,13.07
2022-12-09T18:46:25.408Z,12.37
2022-12-09T18:49:13.579Z,11.87
2022-12-09T18:51:42.400Z,11.67
2022-12-09T18:54:10.292Z,10.90
2022-12-09T18:56:38.287Z,11.07
2022-12-09T18:59:07.833Z,12.90
2022-12-09T19:01:40.640Z,11.77
2022-12-09T19:04:35.640Z,12.17
2022-12-09T19:07:03.391Z,11.87
2022-12-09T19:09:34.654Z,11.23
2022-12-09T19:12:37.928Z,11.37
2022-12-09T19:14:51.745Z,11.43
2022-12-09T19:17:19.987Z,11.00
2022-12-09T19:19:48.493Z,10.87
2022-12-09T19:22:16.336Z,10.73
2022-12-09T19:24:44.226Z,11.57
2022-12-09T19:27:12.077Z,11.30
2022-12-09T19:29:40.783Z,11.80
2022-12-09T19:32:29.603Z,11.57
2022-12-09T19:34:56.569Z,10.80
2022-12-09T19:37:24.313Z,10.13
2022-12-09T19:39:52.140Z,11.87
2022-12-09T19:42:20.665Z,10.77
2022-12-09T19:45:09.112Z,11.90
2022-12-09T19:47:37.178Z,12.17
2022-12-09T19:50:05.547Z,12.93
2022-12-09T19:52:33.889Z,12.33
2022-12-09T19:55:01.804Z,11.33
2022-12-09T19:57:29.647Z,11.20
2022-12-09T19:59:57.483Z,11.93
2022-12-09T20:02:25.356Z,11.27
2022-12-09T20:04:53.248Z,11.50
2022-12-09T20:07:21.165Z,11.03
2022-12-09T20:09:49.328Z,10.80
2022-12-09T20:12:17.243Z,10.33
2022-12-09T20:14:45.361Z,10.23
2022-12-09T20:17:13.174Z,10.90
2022-12-09T20:19:41.375Z,10.37
2022-12-09T20:22:09.232Z,10.97
2022-12-09T20:24:37.163Z,10.30
2022-12-09T20:27:05.081Z,10.83
2022-12-09T20:29:37.580Z,10.33
2022-12-09T20:32:06.790Z,12.60
2022-12-09T20:34:34.699Z,11.50
2022-12-09T20:37:02.593Z,11.67
2022-12-09T20:39:30.390Z,11.47
2022-12-09T20:41:58.223Z,10.50
2022-12-09T20:44:26.082Z,12.00
2022-12-09T20:46:54.155Z,11.10
2022-12-09T20:49:27.329Z,10.60
2022-12-09T20:51:55.293Z,10.60
2022-12-09T20:54:23.252Z,10.60
2022-12-09T20:56:51.432Z,11.40
2022-12-09T20:59:19.431Z,11.47
2022-12-09T21:01:48.367Z,11.77
2022-12-09T21:04:16.428Z,11.73
2022-12-09T21:06:44.533Z,10.63
2022-12-09T21:09:15.915Z,10.73
2022-12-09T21:11:43.665Z,10.23
2022-12-09T21:14:11.769Z,10.87
2022-12-09T21:16:40.746Z,10.33
2022-12-09T21:19:11.476Z,10.37
2022-12-09T21:21:41.419Z,9.43
2022-12-09T21:24:10.878Z,9.80
2022-12-09T21:26:39.055Z,9.50
2022-12-09T21:29:06.834Z,9.17
2022-12-09T21:31:36.347Z,9.30
2022-12-09T21:34:05.557Z,9.17
2022-12-09T21:36:35.106Z,9.67
2022-12-09T21:39:03.360Z,10.30
2022-12-09T21:41:32.835Z,9.87
2022-12-09T21:44:00.668Z,9.23
2022-12-09T21:46:30.147Z,9.43
2022-12-09T21:49:03.364Z,10.40
2022-12-09T21:51:32.149Z,9.60
2022-12-09T21:53:59.997Z,9.47
2022-12-09T21:56:29.034Z,9.47
2022-12-09T21:58:58.037Z,10.23
2022-12-09T22:01:30.736Z,8.73
2022-12-09T22:04:00.821Z,9.00
2022-12-09T22:06:29.384Z,8.77
2022-12-09T22:08:58.788Z,9.20
2022-12-09T22:11:28.307Z,9.80
2022-12-09T22:13:57.931Z,9.43
2022-12-09T22:16:27.758Z,8.40
2022-12-09T22:18:56.474Z,8.90
2022-12-09T22:21:26.414Z,8.80
2022-12-09T22:23:55.758Z,9.27
2022-12-09T22:26:23.841Z,8.97
2022-12-09T22:28:51.788Z,9.10
2022-12-09T22:31:22.506Z,8.73
2022-12-09T22:33:56.403Z,8.40
2022-12-09T22:36:24.191Z,8.63
2022-12-09T22:38:52.046Z,9.13
2022-12-09T22:41:21.999Z,8.77
2022-12-09T22:43:50.989Z,8.23
2022-12-09T22:46:21.593Z,8.40
2022-12-09T22:48:49.635Z,8.17
2022-12-09T22:51:22.035Z,8.93
2022-12-09T22:53:50.553Z,8.93
2022-12-09T22:56:18.456Z,8.23
2022-12-09T22:58:46.164Z,9.00
2022-12-09T23:01:18.819Z,8.27
2022-12-09T23:03:46.584Z,8.57
2022-12-09T23:06:14.491Z,7.33
2022-12-09T23:08:43.209Z,9.23
2022-12-09T23:11:19.113Z,8.03
2022-12-09T23:13:47.027Z,8.27
2022-12-09T23:16:19.670Z,7.70
2022-12-09T23:18:47.471Z,8.50
2022-12-09T23:21:19.104Z,8.40
2022-12-09T23:23:47.049Z,7.87
2022-12-09T23:26:19.658Z,8.60
2022-12-09T23:28:49.215Z,8.57
2022-12-09T23:31:18.520Z,7.97
2022-12-09T23:33:46.819Z,8.50
2022-12-09T23:36:19.847Z,8.77
2022-12-09T23:38:49.425Z,7.83
2022-12-09T23:41:21.274Z,8.23
2022-12-09T23:43:49.363Z,8.23
2022-12-09T23:46:19.471Z,8.07
2022-12-09T23:48:47.941Z,8.10
2022-12-09T23:51:29.350Z,7.87
2022-12-09T23:53:58.635Z,8.10
2022-12-09T23:56:30.702Z,8.20
2022-12-09T23:59:09.145Z,8.23
